Graceland, Illinois
Current Conditions -  °F | °C
As of 7:53 AM on Friday 31 Oct 2014 (Local Time) from KMDW Reporting Station
Light Snow Light Snow  
Wind Chill: 27°   Ceiling: 2600
Heat Index: 38°   Visibility: 9mi
Dew Point: 29°   Wind: 22mph
Humidity: 70%   Direction: 330°NNW
Pressure: 30.1"   Gusts: 32mph
Location:  41.9396°N, 87.6568°W
Report Text: KMDW 311253Z 33019G28KT 9SM -SN BKN026 BKN036 OVC049 03/M02 A3010 RMK AO2 PK WND 31028/1250 SNB46 SLP197 P0000 T00331017
Loading
Personal Weather Stations






























Interactive Weather Map
Tropical Storm Tracking
New forecast layout! Learn more

10-Day Weather Forecast

Advertisements
Track Severe Weather on mobile